Time;durP1;ratioP1;P1;durP2;ratioP2;P2;SDS_P1;SDS_P2;PMS_P1;PMS_P2;Temp;Humidity;BMP_temperature;BMP_pressure;BME280_temperature;BME280_humidity;BME280_pressure;Samples;Min_cycle;Max_cycle;Signal;HPM_P1;HPM_P2
2024/04/22 00:02:28;;;;;;;1.20;1.10;;;17.80;52.60;;;;;;5462981;26;20773;-85
2024/04/22 00:04:53;;;;;;;1.00;0.90;;;17.80;52.50;;;;;;5433413;26;20301;-85
2024/04/22 00:07:19;;;;;;;2.25;1.05;;;17.80;52.60;;;;;;5463066;26;20288;-86
2024/04/22 00:09:48;;;;;;;1.00;0.90;;;17.80;52.70;;;;;;5433124;26;20241;-85
2024/04/22 00:12:14;;;;;;;0.75;0.75;;;17.80;52.40;;;;;;5463042;26;20217;-85
2024/04/22 00:14:42;;;;;;;1.25;0.90;;;17.80;52.50;;;;;;5433176;26;20217;-85
2024/04/22 00:17:08;;;;;;;1.58;0.95;;;17.70;52.40;;;;;;5433159;26;20311;-85
2024/04/22 00:19:33;;;;;;;1.45;0.80;;;17.80;52.40;;;;;;5462671;26;20229;-85
2024/04/22 00:21:59;;;;;;;1.05;0.95;;;17.80;52.60;;;;;;5493577;26;20213;-85
2024/04/22 00:24:26;;;;;;;0.90;0.90;;;17.80;52.60;;;;;;5433291;26;20551;-85
2024/04/22 00:26:52;;;;;;;0.73;0.73;;;17.80;52.60;;;;;;5462556;26;20260;-85
2024/04/22 00:29:20;;;;;;;0.90;0.90;;;17.80;52.60;;;;;;5462840;26;20241;-85
2024/04/22 00:31:48;;;;;;;0.90;0.90;;;17.70;52.50;;;;;;5432776;26;20312;-85
2024/04/22 00:34:14;;;;;;;1.08;0.93;;;17.80;52.60;;;;;;5462749;26;20251;-85
2024/04/22 00:36:45;;;;;;;1.35;0.90;;;17.80;52.60;;;;;;5432834;26;20256;-85
2024/04/22 00:39:11;;;;;;;0.85;0.82;;;17.70;52.70;;;;;;5461370;26;20239;-85
2024/04/22 00:41:37;;;;;;;1.70;1.20;;;17.70;52.70;;;;;;5432989;26;20229;-86
2024/04/22 00:44:03;;;;;;;1.15;1.05;;;17.70;52.70;;;;;;5464676;25;20235;-85
2024/04/22 00:46:30;;;;;;;1.05;0.95;;;17.70;52.70;;;;;;5504823;25;20275;-85
2024/04/22 00:48:57;;;;;;;0.90;0.90;;;17.70;52.60;;;;;;5505975;25;20323;-85
2024/04/22 00:51:24;;;;;;;1.13;1.00;;;17.70;52.60;;;;;;5536252;25;20269;-85
2024/04/22 00:53:50;;;;;;;1.05;0.95;;;17.80;52.60;;;;;;5504977;25;20254;-85
2024/04/22 00:56:17;;;;;;;0.93;0.82;;;17.70;52.70;;;;;;5504622;25;20223;-85
2024/04/22 00:58:48;;;;;;;1.30;0.93;;;17.70;52.80;;;;;;5536796;25;20207;-85
2024/04/22 01:01:17;;;;;;;0.90;0.90;;;17.70;52.60;;;;;;5504405;25;20301;-85
2024/04/22 01:03:47;;;;;;;1.35;0.95;;;17.70;52.60;;;;;;5536339;25;20691;-86
2024/04/22 01:06:15;;;;;;;1.45;1.05;;;17.70;52.90;;;;;;5535982;25;20328;-85
2024/04/22 01:08:43;;;;;;;1.15;0.90;;;17.80;52.50;;;;;;5567395;25;20256;-85
2024/04/22 01:11:09;;;;;;;1.10;1.00;;;17.70;52.80;;;;;;5567242;25;20258;-86
2024/04/22 01:13:35;;;;;;;1.00;0.80;;;17.70;52.70;;;;;;5505337;25;20227;-86
2024/04/22 01:16:01;;;;;;;1.42;1.23;;;17.70;52.70;;;;;;5535715;25;20265;-85
2024/04/22 01:18:27;;;;;;;0.98;0.90;;;17.80;52.90;;;;;;5535998;25;20294;-85
2024/04/22 01:20:54;;;;;;;0.80;0.80;;;17.60;52.80;;;;;;5566594;25;20223;-85
2024/04/22 01:23:24;;;;;;;0.98;0.98;;;17.70;52.90;;;;;;5535794;25;20729;-86
2024/04/22 01:25:54;;;;;;;0.85;0.82;;;17.70;52.60;;;;;;5473042;25;20215;-85
2024/04/22 01:28:19;;;;;;;0.80;0.70;;;17.70;52.90;;;;;;5535133;25;20295;-85
2024/04/22 01:30:45;;;;;;;0.88;0.80;;;17.70;52.90;;;;;;5503425;25;20215;-85
2024/04/22 01:33:22;;;;;;;1.33;1.00;;;17.70;52.90;;;;;;5536391;25;20613;-85
2024/04/22 01:35:49;;;;;;;1.83;1.00;;;17.60;52.90;;;;;;5504734;25;20218;-85
2024/04/22 01:38:19;;;;;;;1.00;0.90;;;17.70;52.80;;;;;;5503708;25;20211;-86
2024/04/22 01:40:47;;;;;;;1.15;1.05;;;17.70;52.70;;;;;;5534363;25;20257;-85
2024/04/22 01:43:13;;;;;;;1.30;0.98;;;17.60;52.80;;;;;;5503786;25;20261;-85
2024/04/22 01:45:39;;;;;;;1.20;1.10;;;17.60;52.90;;;;;;5534950;25;20266;-85
2024/04/22 01:48:05;;;;;;;1.00;0.90;;;17.70;52.70;;;;;;5504413;25;20253;-85
2024/04/22 01:50:36;;;;;;;0.82;0.82;;;17.60;52.90;;;;;;5535099;25;20218;-85
2024/04/22 01:53:03;;;;;;;1.10;1.00;;;17.60;52.90;;;;;;5472523;25;20246;-85
2024/04/22 01:55:29;;;;;;;1.35;1.20;;;17.60;52.90;;;;;;5534855;25;20215;-86
2024/04/22 01:57:56;;;;;;;1.00;0.90;;;17.60;52.70;;;;;;5504438;25;20262;-85
2024/04/22 02:00:22;;;;;;;0.93;0.90;;;17.70;52.70;;;;;;5534824;25;20211;-86
2024/04/22 02:02:48;;;;;;;1.40;0.95;;;17.60;52.80;;;;;;5535035;25;20261;-86
2024/04/22 02:05:15;;;;;;;1.10;1.00;;;17.60;52.90;;;;;;5565537;25;20215;-85
2024/04/22 02:07:42;;;;;;;0.88;0.88;;;17.60;52.80;;;;;;5503707;25;20227;-85
2024/04/22 02:10:11;;;;;;;1.02;1.00;;;17.60;52.70;;;;;;5504513;25;20287;-86
2024/04/22 02:12:37;;;;;;;0.90;0.90;;;17.60;52.80;;;;;;5504815;25;20725;-85
2024/04/22 02:15:10;;;;;;;0.88;0.82;;;17.60;52.70;;;;;;5566065;25;20320;-85
2024/04/22 02:17:37;;;;;;;1.10;1.00;;;17.70;52.90;;;;;;5504294;25;20262;-86
2024/04/22 02:20:04;;;;;;;1.52;1.10;;;17.60;53.00;;;;;;5534480;25;20222;-86
2024/04/22 02:22:30;;;;;;;1.00;0.90;;;17.60;52.80;;;;;;5566252;25;20253;-85
2024/04/22 02:24:58;;;;;;;1.02;0.90;;;17.60;52.90;;;;;;5565715;25;20211;-85
2024/04/22 02:27:24;;;;;;;1.13;1.02;;;17.60;53.00;;;;;;5534608;25;20215;-86
2024/04/22 02:29:51;;;;;;;1.10;1.00;;;17.60;53.00;;;;;;5534428;25;20219;-86
2024/04/22 02:32:20;;;;;;;1.30;1.00;;;17.60;53.00;;;;;;5534127;25;20246;-85
2024/04/22 02:34:50;;;;;;;1.10;1.00;;;17.60;52.90;;;;;;5503939;25;20211;-86
2024/04/22 02:37:17;;;;;;;0.77;0.77;;;17.60;53.00;;;;;;5471945;25;20289;-86
2024/04/22 02:39:45;;;;;;;1.10;1.00;;;17.60;53.00;;;;;;5565690;25;20207;-85
2024/04/22 02:42:11;;;;;;;1.10;0.95;;;17.60;52.90;;;;;;5504356;25;20219;-86
2024/04/22 02:44:42;;;;;;;0.80;0.80;;;17.60;52.70;;;;;;5507314;25;20241;-85
2024/04/22 02:47:09;;;;;;;1.10;1.00;;;17.60;53.00;;;;;;5475151;25;20219;-86
2024/04/22 02:49:35;;;;;;;0.90;0.90;;;17.50;52.80;;;;;;5506937;25;20215;-86
2024/04/22 02:52:01;;;;;;;1.10;1.00;;;17.60;52.90;;;;;;5506585;25;20307;-85
2024/04/22 02:54:31;;;;;;;1.30;0.93;;;17.60;52.90;;;;;;5505836;25;20253;-85
2024/04/22 02:56:59;;;;;;;1.65;0.90;;;17.60;52.90;;;;;;5568505;25;20215;-86
2024/04/22 02:59:25;;;;;;;1.00;0.93;;;17.60;52.90;;;;;;5467399;26;20559;-86
2024/04/22 03:01:54;;;;;;;0.75;0.75;;;17.60;52.70;;;;;;5469892;26;20750;-85
2024/04/22 03:04:20;;;;;;;1.20;1.10;;;17.60;52.90;;;;;;5500295;26;20793;-86
2024/04/22 03:06:50;;;;;;;0.90;0.90;;;17.60;52.90;;;;;;5500233;26;20278;-85
2024/04/22 03:09:20;;;;;;;0.90;0.90;;;17.70;53.00;;;;;;5469405;26;20216;-85
2024/04/22 03:11:52;;;;;;;1.20;1.00;;;17.60;53.00;;;;;;5439008;26;20694;-85
2024/04/22 03:14:18;;;;;;;0.90;0.80;;;17.60;53.00;;;;;;5500203;26;20239;-86
2024/04/22 03:16:44;;;;;;;1.00;1.00;;;17.60;52.90;;;;;;5500238;26;20212;-86
2024/04/22 03:19:15;;;;;;;1.10;1.00;;;17.60;52.90;;;;;;5469377;26;20255;-86
2024/04/22 03:21:46;;;;;;;0.95;0.80;;;17.60;53.00;;;;;;5498002;26;20251;-85
2024/04/22 03:24:13;;;;;;;1.10;1.00;;;17.60;52.90;;;;;;5469227;26;20721;-85
2024/04/22 03:26:39;;;;;;;1.10;1.00;;;17.60;52.90;;;;;;5470495;26;20212;-85
2024/04/22 03:29:04;;;;;;;1.38;1.10;;;17.60;53.00;;;;;;5449256;26;20263;-85
2024/04/22 03:31:33;;;;;;;1.20;1.10;;;17.60;52.80;;;;;;5464387;26;20698;-86
2024/04/22 03:34:01;;;;;;;1.15;1.05;;;17.60;53.00;;;;;;5404875;26;20251;-85
2024/04/22 03:36:28;;;;;;;1.00;0.90;;;17.50;53.00;;;;;;5433842;26;20214;-86
2024/04/22 03:38:57;;;;;;;1.27;0.93;;;17.60;53.00;;;;;;5403679;26;20755;-86
2024/04/22 03:41:27;;;;;;;1.15;0.90;;;17.60;53.00;;;;;;5403794;26;20366;-86
2024/04/22 03:43:55;;;;;;;0.93;0.93;;;17.50;53.00;;;;;;5403523;26;20320;-86
2024/04/22 03:51:44;;;;;;;1.40;1.05;;;17.60;53.00;;;;;;5463792;26;20205;-87
2024/04/22 03:54:11;;;;;;;2.22;1.10;;;17.50;53.00;;;;;;5426305;26;20232;-86
2024/04/22 03:56:38;;;;;;;1.83;1.13;;;17.60;53.00;;;;;;5427388;26;20218;-86
2024/04/22 03:59:04;;;;;;;1.10;1.00;;;17.50;53.00;;;;;;5427026;26;20254;-86
2024/04/22 04:01:34;;;;;;;1.10;1.00;;;17.50;52.90;;;;;;5427511;26;20230;-86
2024/04/22 04:04:00;;;;;;;1.10;1.00;;;17.50;53.00;;;;;;5368223;26;20226;-85
2024/04/22 04:06:27;;;;;;;1.20;1.10;;;17.50;52.90;;;;;;5397203;26;20240;-86
2024/04/22 04:08:54;;;;;;;1.20;1.10;;;17.60;53.00;;;;;;5397559;26;20230;-85
2024/04/22 04:11:32;;;;;;;0.90;0.90;;;17.60;52.90;;;;;;5397125;26;20299;-86
2024/04/22 04:13:59;;;;;;;1.00;0.90;;;17.50;52.80;;;;;;5400326;26;20218;-85
2024/04/22 04:16:26;;;;;;;1.20;1.02;;;17.50;52.80;;;;;;5397904;26;20681;-85
2024/04/22 04:18:52;;;;;;;1.30;1.13;;;17.50;53.60;;;;;;5395547;26;20222;-86
2024/04/22 04:21:17;;;;;;;1.17;1.08;;;17.50;52.90;;;;;;5426409;26;20342;-86
2024/04/22 04:23:48;;;;;;;1.27;1.10;;;17.50;52.80;;;;;;5426868;26;20400;-86
2024/04/22 04:26:17;;;;;;;1.83;1.05;;;17.50;52.90;;;;;;5424326;26;20214;-86
2024/04/22 04:28:47;;;;;;;1.00;0.90;;;17.50;53.00;;;;;;5428241;26;20229;-86
2024/04/22 04:31:12;;;;;;;1.20;1.10;;;17.50;53.00;;;;;;5470544;26;20267;-86
2024/04/22 04:33:41;;;;;;;1.20;1.10;;;17.50;53.00;;;;;;5470253;26;20220;-85
2024/04/22 04:36:07;;;;;;;1.10;1.00;;;17.50;53.00;;;;;;5470749;26;20691;-85
2024/04/22 04:38:35;;;;;;;0.93;0.93;;;17.50;52.90;;;;;;5469948;26;20243;-86
2024/04/22 04:41:02;;;;;;;1.25;1.02;;;17.50;52.90;;;;;;5470363;26;20267;-86
2024/04/22 04:43:29;;;;;;;1.52;1.10;;;17.40;52.80;;;;;;5500612;26;20239;-86
2024/04/22 04:45:56;;;;;;;0.98;0.98;;;17.60;52.80;;;;;;5500610;26;20224;-86
2024/04/22 04:48:22;;;;;;;1.17;1.02;;;17.50;52.80;;;;;;5470235;26;20675;-86
2024/04/22 04:50:48;;;;;;;1.80;1.10;;;17.50;52.80;;;;;;5469532;26;20247;-86
2024/04/22 04:53:15;;;;;;;1.30;1.20;;;17.50;52.90;;;;;;5470666;26;20224;-85
2024/04/22 04:55:46;;;;;;;1.25;1.00;;;17.50;52.90;;;;;;5499843;26;20307;-86
2024/04/22 04:58:12;;;;;;;1.50;1.00;;;17.50;53.00;;;;;;5470832;26;20258;-86
2024/04/22 05:00:43;;;;;;;0.95;0.88;;;17.40;52.80;;;;;;5500538;26;20224;-86
2024/04/22 05:03:13;;;;;;;1.15;1.00;;;17.50;52.90;;;;;;5531045;26;20227;-87
2024/04/22 05:05:39;;;;;;;1.20;1.10;;;17.50;52.80;;;;;;5501282;26;20272;-86
2024/04/22 05:08:11;;;;;;;1.20;1.00;;;17.50;52.80;;;;;;5471163;26;20270;-86
2024/04/22 05:10:38;;;;;;;1.10;1.00;;;17.50;52.90;;;;;;5472127;26;20264;-86
2024/04/22 05:13:05;;;;;;;1.80;1.17;;;17.50;52.80;;;;;;5502482;26;20220;-87
2024/04/22 05:15:32;;;;;;;1.25;1.08;;;17.50;52.80;;;;;;5503633;26;20367;-86
2024/04/22 05:18:00;;;;;;;1.00;1.00;;;17.50;52.80;;;;;;5502771;26;20220;-86
2024/04/22 05:20:30;;;;;;;1.23;1.05;;;17.50;52.80;;;;;;5472170;26;20216;-86
2024/04/22 05:22:56;;;;;;;1.23;1.13;;;17.50;52.90;;;;;;5472643;26;20212;-86
2024/04/22 05:25:22;;;;;;;1.27;1.17;;;17.50;52.80;;;;;;5505417;26;20261;-87
2024/04/22 05:27:52;;;;;;;1.33;1.13;;;17.50;52.80;;;;;;5472234;26;20216;-87
2024/04/22 05:30:19;;;;;;;1.10;1.00;;;17.50;52.70;;;;;;5504368;26;20212;-87
2024/04/22 05:32:50;;;;;;;0.98;0.90;;;17.50;52.70;;;;;;5472583;26;20260;-86
2024/04/22 05:37:56;;;;;;;1.02;0.93;;;17.50;52.80;;;;;;5506844;26;20311;-86
2024/04/22 05:40:27;;;;;;;1.13;1.05;;;17.50;52.90;;;;;;5474150;26;20316;-86
2024/04/22 05:42:56;;;;;;;1.20;1.10;;;17.50;52.80;;;;;;5504639;26;20246;-87
2024/04/22 05:45:49;;;;;;;1.17;1.08;;;17.50;52.80;;;;;;5534457;26;20219;-86
2024/04/22 05:48:15;;;;;;;1.20;1.10;;;17.50;52.80;;;;;;5534553;26;20675;-86
2024/04/22 05:50:42;;;;;;;1.20;1.10;;;17.60;52.70;;;;;;5503230;26;20258;-87
2024/04/22 05:53:15;;;;;;;0.90;0.90;;;17.50;53.40;;;;;;5534507;26;20212;-87
2024/04/22 05:55:46;;;;;;;1.80;1.08;;;17.60;52.70;;;;;;5472235;26;20220;-86
2024/04/22 05:58:13;;;;;;;1.10;1.00;;;17.50;52.70;;;;;;5442963;26;20358;-86
2024/04/22 06:00:40;;;;;;;1.13;1.02;;;17.50;52.70;;;;;;5503455;26;20390;-85
2024/04/22 06:03:14;;;;;;;1.35;1.20;;;17.50;52.60;;;;;;5501530;26;20220;-87
2024/04/22 06:05:40;;;;;;;1.38;1.10;;;17.50;52.50;;;;;;5498155;26;20271;-85
2024/04/22 06:08:07;;;;;;;1.15;1.05;;;17.50;52.60;;;;;;5437811;26;20213;-86
2024/04/22 06:10:33;;;;;;;1.33;1.08;;;17.50;52.70;;;;;;5468867;26;20225;-87
2024/04/22 06:13:00;;;;;;;0.90;0.90;;;17.50;52.50;;;;;;5469951;26;20220;-87
2024/04/22 06:15:26;;;;;;;1.02;0.80;;;17.60;52.30;;;;;;5440322;26;20321;-87
2024/04/22 06:17:53;;;;;;;1.00;0.90;;;17.60;52.30;;;;;;5501269;26;20220;-86
2024/04/22 06:20:19;;;;;;;1.10;1.00;;;17.60;51.90;;;;;;5469318;26;20217;-87
2024/04/22 06:22:48;;;;;;;1.05;0.95;;;17.70;51.60;;;;;;5439526;26;20244;-88
2024/04/22 06:25:20;;;;;;;1.30;1.13;;;17.70;51.80;;;;;;5471652;26;20221;-87
2024/04/22 06:28:41;;;;;;;1.08;0.98;;;17.90;50.90;;;;;;5411640;26;20370;-86
2024/04/22 06:30:53;;;;;;;1.38;0.88;;;17.90;50.90;;;;;;5444187;26;20243;-86
2024/04/22 06:33:23;;;;;;;1.30;1.02;;;18.00;50.70;;;;;;5438811;26;20217;-86
2024/04/22 06:35:51;;;;;;;0.82;0.82;;;18.10;51.00;;;;;;5437822;26;20766;-86
2024/04/22 06:38:27;;;;;;;0.80;0.77;;;17.90;51.00;;;;;;5440477;26;20676;-87
2024/04/22 06:41:00;;;;;;;1.08;0.98;;;18.00;51.10;;;;;;5387998;26;20279;-87
2024/04/22 06:43:28;;;;;;;0.88;0.88;;;17.90;51.50;;;;;;5330498;26;20224;-87
2024/04/22 06:46:49;;;;;;;0.93;0.90;;;17.80;51.70;;;;;;5329612;26;20325;-87
2024/04/22 06:50:15;;;;;;;1.55;0.90;;;17.80;52.00;;;;;;5360529;26;20232;-87
2024/04/22 06:53:19;;;;;;;2.15;1.08;;;17.80;51.50;;;;;;5388738;26;20250;-86
2024/04/22 06:55:45;;;;;;;1.20;1.10;;;17.80;52.00;;;;;;5209026;27;20282;-86
2024/04/22 06:58:13;;;;;;;1.10;1.00;;;17.80;51.70;;;;;;5195483;27;20248;-86
2024/04/22 07:00:42;;;;;;;0.93;0.82;;;17.90;51.40;;;;;;5194936;27;20229;-86
2024/04/22 07:03:33;;;;;;;0.80;0.80;;;17.90;50.70;;;;;;5193786;27;20236;-86
2024/04/22 07:06:25;;;;;;;;;;;;;;;;;;;;;
2024/04/22 07:09:01;;;;;;;2.35;1.00;;;18.00;51.00;;;;;;5217854;27;20225;-86
2024/04/22 07:11:34;;;;;;;2.53;0.93;;;18.00;51.40;;;;;;5217286;27;20228;-85
2024/04/22 07:14:03;;;;;;;1.17;1.05;;;18.00;51.00;;;;;;5206116;27;20703;-87
2024/04/22 07:16:42;;;;;;;1.67;1.05;;;18.10;50.60;;;;;;5187114;27;20769;-84
2024/04/22 07:19:16;;;;;;;2.15;1.10;;;18.20;50.80;;;;;;5157121;27;20731;-86
2024/04/22 07:21:46;;;;;;;2.60;1.10;;;18.20;50.80;;;;;;5106077;27;20231;-85
2024/04/22 07:24:35;;;;;;;3.40;1.08;;;18.20;50.60;;;;;;5141880;27;20223;-86
2024/04/22 07:27:04;;;;;;;3.33;1.02;;;18.20;50.90;;;;;;5158967;27;20237;-86
2024/04/22 07:29:48;;;;;;;0.77;0.77;;;18.20;50.70;;;;;;5195468;27;20301;-86
2024/04/22 07:32:59;;;;;;;0.80;0.80;;;18.20;50.70;;;;;;5136639;27;20235;-86
2024/04/22 07:35:33;;;;;;;1.10;1.00;;;18.20;50.60;;;;;;5193964;27;20277;-86
2024/04/22 07:38:19;;;;;;;1.48;1.15;;;18.30;50.20;;;;;;5291365;27;20231;-86
2024/04/22 07:41:06;;;;;;;0.80;0.80;;;18.30;50.10;;;;;;5300632;27;20654;-86
2024/04/22 07:44:22;;;;;;;1.27;0.80;;;18.30;50.40;;;;;;5314914;26;20264;-85
2024/04/22 07:46:59;;;;;;;3.85;1.00;;;18.30;50.10;;;;;;5292073;27;20238;-86
2024/04/22 07:49:28;;;;;;;3.30;1.00;;;18.40;50.00;;;;;;5321282;27;20270;-86
2024/04/22 07:51:57;;;;;;;7.82;1.10;;;18.40;50.20;;;;;;5293788;27;20226;-85
2024/04/22 07:54:25;;;;;;;2.83;1.17;;;18.40;50.00;;;;;;5321891;27;20230;-85
2024/04/22 07:57:00;;;;;;;1.98;0.90;;;18.40;50.30;;;;;;5295220;27;20277;-86
2024/04/22 08:02:39;;;;;;;2.88;1.23;;;18.40;50.40;;;;;;5251659;27;20244;-85
2024/04/22 08:05:45;;;;;;;1.50;0.85;;;18.40;50.80;;;;;;5194561;27;20236;-86
2024/04/22 08:08:18;;;;;;;2.60;1.02;;;18.40;50.50;;;;;;5187092;27;20263;-86
2024/04/22 08:11:06;;;;;;;;;;;;;;;;;;;;;
2024/04/22 08:13:39;;;;;;;1.95;1.00;;;18.40;50.40;;;;;;5140847;27;20239;-86
2024/04/22 08:16:13;;;;;;;1.13;0.93;;;18.40;51.00;;;;;;5123257;27;20231;-86
2024/04/22 08:18:48;;;;;;;2.72;0.85;;;18.50;50.30;;;;;;5121176;27;20243;-85
2024/04/22 08:21:20;;;;;;;2.30;1.20;;;18.40;50.30;;;;;;5095748;27;20231;-87
2024/04/22 08:23:56;;;;;;;;;;;;;;;;;;;;;
2024/04/22 08:26:22;;;;;;;4.20;1.05;;;18.50;50.40;;;;;;5121986;27;20694;-86
2024/04/22 08:28:53;;;;;;;2.78;1.17;;;18.50;50.10;;;;;;5126438;27;20276;-86
2024/04/22 08:31:23;;;;;;;5.18;0.98;;;18.50;50.80;;;;;;5129475;27;20403;-85
2024/04/22 08:34:00;;;;;;;2.25;0.93;;;18.60;50.80;;;;;;5128043;27;20246;-86
2024/04/22 08:36:45;;;;;;;1.55;1.10;;;18.50;50.70;;;;;;5131952;27;20222;-84
2024/04/22 08:39:13;;;;;;;3.45;1.00;;;18.50;50.80;;;;;;5128897;27;20233;-86
2024/04/22 08:43:16;;;;;;;;;;;;;;;;;;;;;
2024/04/22 08:45:15;;;;;;;4.45;1.30;;;18.50;50.80;;;;;;5140404;27;20892;-85
2024/04/22 08:47:44;;;;;;;1.90;1.02;;;18.50;50.60;;;;;;5178465;27;20228;-85
2024/04/22 08:50:13;;;;;;;3.67;1.00;;;18.50;50.80;;;;;;5172311;27;20230;-86
2024/04/22 08:52:41;;;;;;;2.97;1.20;;;18.50;51.00;;;;;;5209744;27;20226;-86
2024/04/22 08:55:16;;;;;;;2.33;1.08;;;18.40;51.10;;;;;;5211416;27;20328;-85
2024/04/22 08:57:51;;;;;;;7.22;1.27;;;18.40;51.70;;;;;;5136330;27;20339;-85
2024/04/22 09:00:39;;;;;;;;;;;;;;;;;;;;;
2024/04/22 09:03:25;;;;;;;4.40;1.10;;;18.40;51.40;;;;;;5179724;27;20229;-84
2024/04/22 09:06:40;;;;;;;6.65;1.23;;;18.40;51.50;;;;;;5214697;27;20245;-84
2024/04/22 09:09:08;;;;;;;4.10;1.15;;;18.40;51.40;;;;;;5162723;27;20219;-86
2024/04/22 09:12:02;;;;;;;2.03;0.90;;;18.40;51.70;;;;;;5184918;27;20283;-86
2024/04/22 09:14:37;;;;;;;1.77;1.10;;;18.40;52.10;;;;;;5157232;27;20395;-85
2024/04/22 09:17:18;;;;;;;4.80;1.02;;;18.30;52.20;;;;;;5195108;27;20237;-86
2024/04/22 09:20:24;;;;;;;8.02;1.38;;;18.30;52.60;;;;;;5136265;27;20239;-85
2024/04/22 09:23:00;;;;;;;2.10;1.17;;;18.30;52.30;;;;;;5249806;27;20240;-86
2024/04/22 09:25:34;;;;;;;2.72;1.30;;;18.30;52.30;;;;;;5218767;27;20289;-86
2024/04/22 09:28:02;;;;;;;1.65;0.90;;;18.40;52.50;;;;;;5219536;27;20247;-84
2024/04/22 09:30:29;;;;;;;3.05;0.98;;;18.30;52.20;;;;;;5222908;27;20255;-84
2024/04/22 09:33:03;;;;;;;2.38;1.13;;;18.30;52.20;;;;;;5222337;27;20267;-83
2024/04/22 09:35:58;;;;;;;;;;;;;;;;;;;;;
2024/04/22 09:39:02;;;;;;;2.90;0.90;;;18.30;52.20;;;;;;5247423;26;20255;-84
2024/04/22 09:41:28;;;;;;;5.28;0.93;;;18.30;52.40;;;;;;5327739;26;20260;-84
2024/04/22 09:43:55;;;;;;;2.88;1.05;;;18.30;52.30;;;;;;5358396;26;20228;-84
2024/04/22 09:46:25;;;;;;;1.67;1.00;;;18.30;52.20;;;;;;5360306;26;20292;-83
2024/04/22 09:52:40;;;;;;;1.30;1.20;;;18.30;52.00;;;;;;5290865;26;20570;-84
2024/04/22 09:55:12;;;;;;;2.30;1.10;;;18.30;51.90;;;;;;5326838;26;20225;-84
2024/04/22 09:58:01;;;;;;;0.95;0.80;;;18.30;51.80;;;;;;5327660;26;20225;-84
2024/04/22 10:00:35;;;;;;;1.35;0.73;;;18.30;52.10;;;;;;5353714;26;20217;-86
2024/04/22 10:03:08;;;;;;;1.30;0.90;;;18.30;52.00;;;;;;5296891;26;20338;-87
2024/04/22 10:05:46;;;;;;;1.08;0.95;;;18.20;52.10;;;;;;5328698;26;20221;-86
2024/04/22 10:08:15;;;;;;;3.20;0.88;;;18.30;52.00;;;;;;5356618;26;20823;-84
2024/04/22 10:10:45;;;;;;;2.33;1.10;;;18.30;52.00;;;;;;5326789;26;20221;-85
2024/04/22 10:13:25;;;;;;;1.17;0.80;;;18.40;51.70;;;;;;5326600;26;20244;-86
2024/04/22 10:15:53;;;;;;;3.03;0.93;;;18.30;52.00;;;;;;5325584;26;20229;-86
2024/04/22 10:18:27;;;;;;;3.17;1.10;;;18.30;52.20;;;;;;5326825;26;20299;-85
2024/04/22 10:21:26;;;;;;;0.77;0.75;;;18.40;51.80;;;;;;5301005;26;20221;-85
2024/04/22 10:23:53;;;;;;;1.02;0.93;;;18.40;51.50;;;;;;5297577;26;20300;-85
2024/04/22 10:26:24;;;;;;;2.75;1.00;;;18.30;51.80;;;;;;5321328;26;20276;-85
2024/04/22 10:28:50;;;;;;;3.15;1.08;;;18.30;52.00;;;;;;5409007;25;20287;-85
2024/04/22 10:31:32;;;;;;;1.83;0.88;;;18.30;52.10;;;;;;5508674;25;20215;-85
2024/04/22 10:34:04;;;;;;;1.77;0.90;;;18.30;51.70;;;;;;5537961;25;20302;-85
2024/04/22 10:36:30;;;;;;;2.88;1.00;;;18.40;51.30;;;;;;5508548;25;20215;-86
2024/04/22 10:39:11;;;;;;;2.10;0.80;;;18.40;51.30;;;;;;5568633;25;20219;-85
2024/04/22 10:41:37;;;;;;;0.80;0.80;;;18.40;51.70;;;;;;5507680;25;20211;-85
2024/04/22 10:44:03;;;;;;;1.95;0.80;;;18.40;51.70;;;;;;5506468;25;20219;-85
2024/04/22 10:46:30;;;;;;;0.95;0.80;;;18.40;51.70;;;;;;5538017;25;20212;-84
2024/04/22 10:48:59;;;;;;;0.73;0.73;;;18.40;51.60;;;;;;5535266;25;20219;-86
2024/04/22 10:51:26;;;;;;;0.93;0.82;;;18.30;51.60;;;;;;5535348;25;20313;-84
2024/04/22 10:53:54;;;;;;;1.88;0.80;;;18.30;51.70;;;;;;5504082;25;20298;-84
2024/04/22 10:56:25;;;;;;;0.80;0.77;;;18.30;51.80;;;;;;5496497;26;20550;-85
2024/04/22 10:58:51;;;;;;;1.00;0.93;;;18.30;51.80;;;;;;5405774;26;20322;-84
2024/04/22 11:01:17;;;;;;;0.70;0.70;;;18.30;51.90;;;;;;5435821;26;20216;-86
2024/04/22 11:03:43;;;;;;;1.63;0.80;;;18.30;51.70;;;;;;5465042;26;20267;-85
2024/04/22 11:06:12;;;;;;;1.33;0.75;;;18.30;51.70;;;;;;5498206;26;20249;-84
2024/04/22 11:08:40;;;;;;;1.10;0.88;;;18.30;51.50;;;;;;5437056;26;20216;-84
2024/04/22 11:11:05;;;;;;;1.15;0.90;;;18.30;51.60;;;;;;5436139;26;20220;-85
2024/04/22 11:13:32;;;;;;;2.20;1.05;;;18.30;51.40;;;;;;5495504;26;20538;-85
2024/04/22 11:16:08;;;;;;;2.17;1.10;;;18.40;51.50;;;;;;5437713;26;20790;-84
2024/04/22 11:18:34;;;;;;;1.23;0.90;;;18.30;51.60;;;;;;5466503;26;20463;-85
2024/04/22 11:21:02;;;;;;;0.60;0.60;;;18.30;51.70;;;;;;5456181;26;20244;-84
2024/04/22 11:23:31;;;;;;;0.95;0.80;;;18.40;51.70;;;;;;5463687;26;20256;-85
2024/04/22 11:25:57;;;;;;;0.80;0.80;;;18.30;51.60;;;;;;5434766;26;20217;-86
2024/04/22 11:28:24;;;;;;;0.95;0.85;;;18.30;51.60;;;;;;5469296;26;20242;-85
2024/04/22 11:30:56;;;;;;;0.73;0.73;;;18.40;51.10;;;;;;5505380;26;20220;-84
2024/04/22 11:33:23;;;;;;;2.28;1.00;;;18.50;51.20;;;;;;5457295;25;20227;-83
2024/04/22 11:35:50;;;;;;;0.75;0.75;;;18.50;50.40;;;;;;5508855;25;20570;-84
2024/04/22 11:38:16;;;;;;;0.80;0.80;;;18.50;50.30;;;;;;5568876;25;20215;-82
2024/04/22 11:40:43;;;;;;;1.52;0.93;;;18.60;50.60;;;;;;5542470;25;20223;-83
2024/04/22 11:43:09;;;;;;;1.23;0.70;;;18.60;50.80;;;;;;5539698;25;20219;-82
2024/04/22 11:45:40;;;;;;;1.20;0.90;;;18.60;50.70;;;;;;5544294;25;20242;-82
2024/04/22 11:48:07;;;;;;;0.90;0.80;;;18.50;50.60;;;;;;5512430;25;20219;-84
2024/04/22 11:50:36;;;;;;;0.70;0.70;;;18.60;50.70;;;;;;5545411;25;20271;-84
2024/04/22 11:53:09;;;;;;;1.67;0.90;;;18.60;50.80;;;;;;5544304;25;20223;-82
2024/04/22 11:55:34;;;;;;;1.13;0.70;;;18.50;50.70;;;;;;5478195;25;20226;-84
2024/04/22 11:58:02;;;;;;;1.17;0.90;;;18.50;50.60;;;;;;5516491;25;20279;-86
2024/04/22 12:00:29;;;;;;;0.98;0.90;;;18.50;50.60;;;;;;5519050;25;20307;-84
2024/04/22 12:02:57;;;;;;;0.93;0.80;;;18.60;51.20;;;;;;5479292;26;20225;-84
2024/04/22 12:05:22;;;;;;;0.98;0.80;;;18.50;50.60;;;;;;5447318;26;20297;-84
2024/04/22 12:07:51;;;;;;;0.98;0.77;;;18.60;50.20;;;;;;5446310;26;20223;-84
2024/04/22 12:10:19;;;;;;;1.25;0.70;;;18.60;50.10;;;;;;5417568;26;20216;-84
2024/04/22 12:12:46;;;;;;;0.73;0.73;;;18.60;50.00;;;;;;5441771;26;20542;-84
2024/04/22 12:15:12;;;;;;;0.93;0.70;;;18.60;49.90;;;;;;5506365;26;20260;-84
2024/04/22 12:17:39;;;;;;;0.98;0.88;;;18.70;49.60;;;;;;5448080;26;20227;-84
2024/04/22 12:20:09;;;;;;;0.70;0.70;;;18.70;49.20;;;;;;5448714;26;20281;-83
2024/04/22 12:22:37;;;;;;;0.98;0.82;;;18.70;50.00;;;;;;5478199;26;20243;-84
2024/04/22 12:25:06;;;;;;;0.77;0.77;;;18.70;50.40;;;;;;5447707;26;20316;-84
2024/04/22 12:27:32;;;;;;;0.70;0.68;;;18.60;50.50;;;;;;5447583;26;20809;-83
2024/04/22 12:30:03;;;;;;;1.33;0.70;;;18.60;50.30;;;;;;5474496;26;20231;-84
2024/04/22 12:32:30;;;;;;;1.30;1.08;;;18.60;50.30;;;;;;5445781;26;20384;-84
2024/04/22 12:35:03;;;;;;;1.25;0.80;;;18.60;50.30;;;;;;5445620;26;20216;-84
2024/04/22 12:37:33;;;;;;;1.75;0.75;;;18.60;50.10;;;;;;5504356;26;20704;-84
2024/04/22 12:40:00;;;;;;;0.80;0.80;;;18.60;50.30;;;;;;5445035;26;20220;-84
2024/04/22 12:42:31;;;;;;;0.80;0.60;;;18.60;49.90;;;;;;5444093;26;20624;-83
2024/04/22 12:45:02;;;;;;;0.55;0.55;;;18.60;49.90;;;;;;5433683;26;20214;-84
2024/04/22 12:50:49;;;;;;;0.70;0.70;;;18.60;49.50;;;;;;5510711;26;20293;-84
2024/04/22 12:53:17;;;;;;;0.73;0.70;;;18.70;50.00;;;;;;5482850;26;20251;-85
2024/04/22 12:55:47;;;;;;;0.70;0.70;;;18.70;49.60;;;;;;5473951;26;20267;-85
2024/04/22 12:58:16;;;;;;;0.60;0.60;;;18.70;50.00;;;;;;5448079;26;20251;-85
2024/04/22 13:00:46;;;;;;;1.15;0.68;;;18.70;49.50;;;;;;5507046;26;20228;-84
2024/04/22 13:03:12;;;;;;;1.35;0.60;;;18.70;49.50;;;;;;5440851;26;20284;-83
2024/04/22 13:05:44;;;;;;;1.52;0.90;;;18.70;50.00;;;;;;5472922;26;20269;-83
2024/04/22 13:08:10;;;;;;;0.80;0.68;;;18.70;49.90;;;;;;5468559;26;20353;-84
2024/04/22 13:10:36;;;;;;;3.20;0.70;;;18.70;49.90;;;;;;5468887;26;20233;-83
2024/04/22 13:13:06;;;;;;;0.60;0.60;;;18.70;49.60;;;;;;5470229;26;20217;-83
2024/04/22 13:15:31;;;;;;;1.08;0.80;;;18.70;50.00;;;;;;5480854;26;20219;-83
2024/04/22 13:18:00;;;;;;;1.27;0.70;;;18.60;49.60;;;;;;5538374;26;20692;-83
2024/04/22 13:20:55;;;;;;;0.85;0.77;;;18.80;49.60;;;;;;5469719;26;20225;-84
2024/04/22 13:23:24;;;;;;;1.02;0.60;;;18.70;49.70;;;;;;5432999;26;20246;-83
2024/04/22 13:26:19;;;;;;;1.90;0.73;;;18.70;49.50;;;;;;5403495;26;20599;-83
2024/04/22 13:28:50;;;;;;;0.68;0.60;;;18.70;49.40;;;;;;5423693;26;20298;-86
2024/04/22 13:31:18;;;;;;;1.70;0.63;;;18.70;49.80;;;;;;5343311;26;20240;-85
2024/04/22 13:33:52;;;;;;;0.85;0.70;;;18.80;49.00;;;;;;5300011;26;20221;-86